Time;durP1;ratioP1;P1;durP2;ratioP2;P2;SDS_P1;SDS_P2;PMS_P1;PMS_P2;Temp;Humidity;BMP_temperature;BMP_pressure;BME280_temperature;BME280_humidity;BME280_pressure;Samples;Min_cycle;Max_cycle;Signal;HPM_P1;HPM_P2
2021/08/13 00:00:27;;;;;;;23.33;17.83;;;;;;;;;;1083128;54;20027;-58
2021/08/13 00:01:31;;;;;;;22.35;18.35;;;;;;;;;;1083143;54;20056;-58
2021/08/13 00:02:33;;;;;;;22.98;18.08;;;;;;;;;;1083180;54;20042;-58
2021/08/13 00:03:37;;;;;;;23.15;18.02;;;;;;;;;;1083170;54;20027;-58
2021/08/13 00:04:38;;;;;;;26.15;18.17;;;;;;;;;;1083132;54;20034;-58
2021/08/13 00:05:42;;;;;;;24.58;17.70;;;;;;;;;;1083149;54;20094;-58
2021/08/13 00:06:43;;;;;;;25.33;18.55;;;;;;;;;;1083144;54;20038;-58
2021/08/13 00:07:46;;;;;;;24.83;18.40;;;;;;;;;;1083119;54;20027;-58
2021/08/13 00:08:47;;;;;;;22.27;18.77;;;;;;;;;;1082896;54;20631;-58
2021/08/13 00:09:51;;;;;;;24.75;18.65;;;;;;;;;;1083128;54;20030;-58
2021/08/13 00:10:52;;;;;;;25.98;19.20;;;;;;;;;;1083593;39;20501;-58
2021/08/13 00:11:56;;;;;;;23.63;18.23;;;;;;;;;;1083185;54;20118;-58
2021/08/13 00:12:58;;;;;;;22.85;17.58;;;;;;;;;;1083155;54;20022;-58
2021/08/13 00:14:02;;;;;;;23.67;19.00;;;;;;;;;;1083126;54;20053;-58
2021/08/13 00:15:04;;;;;;;23.00;18.92;;;;;;;;;;1083567;39;20433;-58
2021/08/13 00:16:08;;;;;;;28.30;18.77;;;;;;;;;;1083136;54;20026;-58
2021/08/13 00:17:09;;;;;;;24.83;18.75;;;;;;;;;;1083164;54;20588;-58
2021/08/13 00:18:14;;;;;;;25.65;18.40;;;;;;;;;;1083081;54;20037;-58
2021/08/13 00:19:15;;;;;;;24.08;19.10;;;;;;;;;;1083166;54;20106;-58
2021/08/13 00:20:20;;;;;;;25.15;19.23;;;;;;;;;;1083143;54;20034;-58
2021/08/13 00:21:21;;;;;;;22.85;17.98;;;;;;;;;;1083123;54;20049;-58
2021/08/13 00:22:24;;;;;;;21.45;18.13;;;;;;;;;;1083125;54;20030;-58
2021/08/13 00:23:25;;;;;;;23.52;18.67;;;;;;;;;;1082818;54;20038;-58
2021/08/13 00:24:29;;;;;;;25.02;18.95;;;;;;;;;;1082903;54;20615;-58
2021/08/13 00:25:30;;;;;;;23.98;18.80;;;;;;;;;;1083100;54;20034;-58
2021/08/13 00:26:40;;;;;;;27.65;18.83;;;;;;;;;;1083233;54;20130;-58
2021/08/13 00:27:42;;;;;;;25.25;19.55;;;;;;;;;;1083531;39;20551;-58
2021/08/13 00:28:45;;;;;;;24.77;18.10;;;;;;;;;;1083129;54;20560;-58
2021/08/13 00:29:46;;;;;;;25.02;19.27;;;;;;;;;;1083130;54;20544;-58
2021/08/13 00:30:50;;;;;;;22.95;19.15;;;;;;;;;;1083143;54;20026;-58
2021/08/13 00:31:54;;;;;;;24.08;17.98;;;;;;;;;;1083105;54;20027;-58
2021/08/13 00:32:55;;;;;;;21.55;18.55;;;;;;;;;;1083012;54;20057;-58
2021/08/13 00:34:00;;;;;;;23.70;18.77;;;;;;;;;;1083138;54;20552;-58
2021/08/13 00:35:01;;;;;;;22.65;18.38;;;;;;;;;;1083116;54;20072;-58
2021/08/13 00:36:04;;;;;;;25.63;18.83;;;;;;;;;;1083122;54;20023;-58
2021/08/13 00:37:05;;;;;;;25.00;18.13;;;;;;;;;;1083096;54;20053;-58
2021/08/13 00:38:09;;;;;;;23.70;17.98;;;;;;;;;;1083039;54;20030;-58
2021/08/13 00:39:10;;;;;;;24.83;17.85;;;;;;;;;;1083081;54;20027;-58
2021/08/13 00:40:14;;;;;;;24.33;17.65;;;;;;;;;;1083112;54;20034;-58
2021/08/13 00:41:15;;;;;;;23.17;17.80;;;;;;;;;;1083102;54;20264;-58
2021/08/13 00:42:19;;;;;;;25.48;17.85;;;;;;;;;;1083520;39;20427;-58
2021/08/13 00:43:20;;;;;;;24.27;18.38;;;;;;;;;;1083070;54;20055;-58
2021/08/13 00:44:24;;;;;;;26.85;19.02;;;;;;;;;;1083082;54;20027;-58
2021/08/13 00:45:25;;;;;;;23.38;18.05;;;;;;;;;;1083074;54;20027;-58
2021/08/13 00:46:28;;;;;;;25.05;18.67;;;;;;;;;;1083075;54;20018;-58
2021/08/13 00:47:29;;;;;;;22.65;17.67;;;;;;;;;;1083037;54;20132;-59
2021/08/13 00:48:33;;;;;;;23.63;18.00;;;;;;;;;;1083529;39;20418;-58
2021/08/13 00:49:38;;;;;;;22.98;18.20;;;;;;;;;;1083848;31;20504;-58
2021/08/13 00:50:39;;;;;;;23.95;19.55;;;;;;;;;;1083123;54;20026;-58
2021/08/13 00:51:43;;;;;;;26.05;19.27;;;;;;;;;;1083078;54;20030;-58
2021/08/13 00:52:45;;;;;;;23.83;18.13;;;;;;;;;;1083129;54;20138;-58
2021/08/13 00:53:49;;;;;;;21.67;17.42;;;;;;;;;;1083139;54;20029;-58
2021/08/13 00:54:50;;;;;;;23.77;18.67;;;;;;;;;;1083104;54;20114;-58
2021/08/13 00:55:54;;;;;;;22.08;17.73;;;;;;;;;;1083496;39;20468;-58
2021/08/13 00:56:55;;;;;;;21.83;17.48;;;;;;;;;;1083115;54;20026;-58
2021/08/13 00:57:59;;;;;;;23.98;18.02;;;;;;;;;;1083069;54;20037;-58
2021/08/13 00:59:01;;;;;;;22.83;18.10;;;;;;;;;;1083022;54;20118;-58
2021/08/13 01:00:06;;;;;;;24.98;18.08;;;;;;;;;;1083582;39;20445;-58
2021/08/13 01:01:10;;;;;;;21.13;17.40;;;;;;;;;;1083064;54;20038;-58
2021/08/13 01:02:11;;;;;;;23.35;18.08;;;;;;;;;;1083045;54;20037;-58
2021/08/13 01:03:15;;;;;;;21.10;17.52;;;;;;;;;;1083094;54;20026;-58
2021/08/13 01:04:16;;;;;;;22.05;18.17;;;;;;;;;;1083077;54;20030;-58
2021/08/13 01:05:21;;;;;;;21.55;17.60;;;;;;;;;;1083032;54;20037;-58
2021/08/13 01:06:25;;;;;;;21.52;18.52;;;;;;;;;;1083046;54;20061;-58
2021/08/13 01:07:26;;;;;;;21.77;17.02;;;;;;;;;;1083013;54;20130;-58
2021/08/13 01:08:30;;;;;;;25.85;18.40;;;;;;;;;;1083049;54;20033;-58
2021/08/13 01:09:31;;;;;;;22.30;17.35;;;;;;;;;;1083048;46;20129;-58
2021/08/13 01:10:43;;;;;;;22.88;16.42;;;;;;;;;;1083077;54;20034;-58
2021/08/13 01:11:54;;;;;;;19.90;16.83;;;;;;;;;;1083106;54;20027;-58
2021/08/13 01:13:03;;;;;;;23.20;17.20;;;;;;;;;;1083062;54;20022;-58
2021/08/13 01:14:12;;;;;;;22.25;17.55;;;;;;;;;;1083038;54;20031;-58
2021/08/13 01:15:15;;;;;;;22.02;17.70;;;;;;;;;;1083072;54;20026;-58
2021/08/13 01:16:21;;;;;;;22.17;17.10;;;;;;;;;;1083070;54;20134;-58
2021/08/13 01:17:22;;;;;;;22.13;16.85;;;;;;;;;;1083467;39;20429;-58
2021/08/13 01:18:31;;;;;;;22.63;17.45;;;;;;;;;;1082952;54;20030;-58
2021/08/13 01:19:49;;;;;;;22.40;17.10;;;;;;;;;;1083095;54;20557;-58
2021/08/13 01:21:15;;;;;;;24.58;16.88;;;;;;;;;;1083390;54;20026;-58
2021/08/13 01:22:23;;;;;;;23.38;17.40;;;;;;;;;;1083417;54;20041;-58
2021/08/13 01:23:30;;;;;;;21.58;16.83;;;;;;;;;;1083452;54;20536;-58
2021/08/13 01:24:41;;;;;;;21.38;17.45;;;;;;;;;;1083395;54;20030;-58
2021/08/13 01:25:47;;;;;;;25.55;17.15;;;;;;;;;;1083391;54;20110;-58
2021/08/13 01:26:54;;;;;;;20.40;16.55;;;;;;;;;;1083396;54;20073;-58
2021/08/13 01:27:56;;;;;;;23.40;16.70;;;;;;;;;;1083396;54;20122;-59
2021/08/13 01:29:12;;;;;;;21.60;17.25;;;;;;;;;;1083399;54;20030;-58
2021/08/13 01:30:15;;;;;;;21.80;17.05;;;;;;;;;;1083397;54;20049;-58
2021/08/13 01:31:22;;;;;;;22.17;16.77;;;;;;;;;;1083375;54;20038;-58
2021/08/13 01:32:43;;;;;;;22.52;18.02;;;;;;;;;;1084186;31;20504;-58
2021/08/13 01:33:46;;;;;;;23.40;16.90;;;;;;;;;;1083534;39;20505;-58
2021/08/13 01:34:59;;;;;;;20.70;16.40;;;;;;;;;;1083131;54;20057;-58
2021/08/13 01:36:03;;;;;;;22.42;17.17;;;;;;;;;;1083348;54;20038;-58
2021/08/13 01:37:08;;;;;;;23.13;17.23;;;;;;;;;;1083315;54;20027;-58
2021/08/13 01:38:13;;;;;;;22.05;17.17;;;;;;;;;;1083334;54;20061;-58
2021/08/13 01:39:18;;;;;;;20.10;16.05;;;;;;;;;;1083369;54;20031;-58
2021/08/13 01:40:21;;;;;;;20.77;17.27;;;;;;;;;;1083367;54;20114;-58
2021/08/13 01:41:26;;;;;;;23.27;17.05;;;;;;;;;;1083426;54;20548;-61
2021/08/13 01:42:27;;;;;;;21.85;17.25;;;;;;;;;;1083406;54;20117;-58
2021/08/13 01:43:32;;;;;;;21.48;17.17;;;;;;;;;;1083343;54;20561;-58
2021/08/13 01:44:34;;;;;;;19.92;17.35;;;;;;;;;;1083418;54;20053;-58
2021/08/13 01:45:39;;;;;;;21.23;17.02;;;;;;;;;;1083400;54;20043;-58
2021/08/13 01:46:42;;;;;;;23.25;17.50;;;;;;;;;;1083380;54;20465;-58
2021/08/13 01:47:48;;;;;;;23.95;17.55;;;;;;;;;;1083354;54;20030;-58
2021/08/13 01:48:50;;;;;;;21.95;16.88;;;;;;;;;;1083381;54;20109;-58
2021/08/13 01:49:55;;;;;;;21.23;17.02;;;;;;;;;;1083353;54;20038;-58
2021/08/13 01:50:57;;;;;;;22.27;16.77;;;;;;;;;;1083337;54;20544;-59
2021/08/13 01:52:01;;;;;;;20.70;17.05;;;;;;;;;;1083371;54;20528;-58
2021/08/13 01:53:03;;;;;;;20.85;16.45;;;;;;;;;;1083322;54;20027;-58
2021/08/13 01:54:08;;;;;;;22.67;16.65;;;;;;;;;;1083363;54;20077;-58
2021/08/13 01:55:11;;;;;;;22.70;15.88;;;;;;;;;;1083337;54;20027;-58
2021/08/13 01:56:15;;;;;;;24.70;16.75;;;;;;;;;;1083329;54;20037;-58
2021/08/13 01:57:16;;;;;;;21.42;16.77;;;;;;;;;;1083336;54;20121;-58
2021/08/13 01:58:20;;;;;;;20.90;16.40;;;;;;;;;;1083777;39;20433;-58
2021/08/13 01:59:22;;;;;;;21.65;16.40;;;;;;;;;;1083278;54;20027;-58
2021/08/13 02:00:27;;;;;;;22.35;17.58;;;;;;;;;;1083436;54;20073;-58
2021/08/13 02:01:30;;;;;;;24.80;16.00;;;;;;;;;;1083317;54;20030;-58
2021/08/13 02:02:34;;;;;;;22.33;16.83;;;;;;;;;;1083339;54;20026;-58
2021/08/13 02:03:38;;;;;;;26.58;17.20;;;;;;;;;;1083356;54;20022;-58
2021/08/13 02:04:44;;;;;;;21.38;16.77;;;;;;;;;;1083388;54;20061;-58
2021/08/13 02:05:46;;;;;;;20.42;16.95;;;;;;;;;;1083319;54;20026;-58
2021/08/13 02:06:51;;;;;;;20.55;16.98;;;;;;;;;;1083306;54;20033;-58
2021/08/13 02:07:54;;;;;;;20.15;15.68;;;;;;;;;;1083279;54;20061;-59
2021/08/13 02:08:58;;;;;;;21.65;16.35;;;;;;;;;;1083339;54;20121;-58
2021/08/13 02:09:59;;;;;;;19.88;16.00;;;;;;;;;;1083302;54;20030;-58
2021/08/13 02:11:03;;;;;;;22.38;17.17;;;;;;;;;;1083343;54;20030;-58
2021/08/13 02:12:04;;;;;;;20.42;16.10;;;;;;;;;;1083335;54;20026;-58
2021/08/13 02:13:08;;;;;;;21.30;16.08;;;;;;;;;;1083343;54;20070;-58
2021/08/13 02:14:10;;;;;;;22.17;16.67;;;;;;;;;;1083301;54;20038;-58
2021/08/13 02:15:14;;;;;;;20.75;15.95;;;;;;;;;;1083303;54;20035;-58
2021/08/13 02:16:21;;;;;;;19.20;16.20;;;;;;;;;;1083299;54;20049;-58
2021/08/13 02:17:28;;;;;;;23.10;16.70;;;;;;;;;;1083359;54;20070;-60
2021/08/13 02:18:30;;;;;;;19.65;15.43;;;;;;;;;;1083752;39;20389;-58
2021/08/13 02:19:39;;;;;;;20.67;15.88;;;;;;;;;;1083659;39;20441;-60
2021/08/13 02:20:44;;;;;;;20.77;15.82;;;;;;;;;;1083312;54;20033;-60
2021/08/13 02:21:49;;;;;;;19.23;15.93;;;;;;;;;;1083325;54;20031;-58
2021/08/13 02:22:50;;;;;;;20.17;15.82;;;;;;;;;;1083340;54;20026;-58
2021/08/13 02:23:54;;;;;;;19.30;14.93;;;;;;;;;;1083353;54;20031;-58
2021/08/13 02:24:55;;;;;;;19.42;15.55;;;;;;;;;;1083309;54;20038;-58
2021/08/13 02:25:59;;;;;;;20.58;15.23;;;;;;;;;;1083349;54;20552;-58
2021/08/13 02:27:01;;;;;;;20.15;15.43;;;;;;;;;;1083273;54;20122;-58
2021/08/13 02:28:05;;;;;;;20.85;15.77;;;;;;;;;;1083297;54;20033;-58
2021/08/13 02:29:06;;;;;;;19.17;15.88;;;;;;;;;;1083308;54;20114;-58
2021/08/13 02:30:11;;;;;;;19.67;15.45;;;;;;;;;;1083294;54;20027;-58
2021/08/13 02:31:12;;;;;;;21.55;15.20;;;;;;;;;;1083176;54;20039;-58
2021/08/13 02:32:16;;;;;;;22.63;15.70;;;;;;;;;;1083671;39;20440;-58
2021/08/13 02:33:16;;;;;;;20.48;16.15;;;;;;;;;;1083327;54;20113;-58
2021/08/13 02:34:20;;;;;;;22.30;15.45;;;;;;;;;;1083328;54;20027;-58
2021/08/13 02:35:23;;;;;;;22.70;14.93;;;;;;;;;;1083281;54;20035;-57
2021/08/13 02:36:32;;;;;;;18.80;15.60;;;;;;;;;;1083300;54;20030;-58
2021/08/13 02:37:37;;;;;;;22.33;15.60;;;;;;;;;;1083304;54;20027;-58
2021/08/13 02:39:06;;;;;;;19.38;15.63;;;;;;;;;;1083279;54;20027;-58
2021/08/13 02:40:10;;;;;;;21.83;16.43;;;;;;;;;;1084020;31;20508;-58
2021/08/13 02:41:14;;;;;;;19.08;14.65;;;;;;;;;;1083688;39;20673;-58
2021/08/13 02:42:20;;;;;;;21.33;15.98;;;;;;;;;;1082997;47;20045;-58
2021/08/13 02:43:29;;;;;;;20.98;15.43;;;;;;;;;;1083106;54;20026;-58
2021/08/13 02:44:33;;;;;;;19.23;15.02;;;;;;;;;;1083686;39;20405;-58
2021/08/13 02:45:41;;;;;;;21.05;15.70;;;;;;;;;;1083311;54;20026;-58
2021/08/13 02:46:49;;;;;;;21.10;15.38;;;;;;;;;;1083293;54;20034;-58
2021/08/13 02:47:58;;;;;;;18.80;15.73;;;;;;;;;;1083277;54;20031;-58
2021/08/13 02:49:00;;;;;;;20.25;15.68;;;;;;;;;;1083305;54;20062;-58
2021/08/13 02:50:07;;;;;;;20.88;15.20;;;;;;;;;;1083282;54;20023;-58
2021/08/13 02:51:15;;;;;;;22.50;15.88;;;;;;;;;;1083291;54;20079;-58
2021/08/13 02:52:22;;;;;;;19.13;15.55;;;;;;;;;;1083310;54;20026;-58
2021/08/13 02:53:25;;;;;;;20.35;15.45;;;;;;;;;;1083266;54;20026;-58
2021/08/13 02:54:31;;;;;;;22.55;15.68;;;;;;;;;;1083248;54;20031;-58
2021/08/13 02:55:36;;;;;;;21.25;15.57;;;;;;;;;;1083252;54;20110;-58
2021/08/13 02:56:42;;;;;;;18.88;15.23;;;;;;;;;;1083267;54;20034;-58
2021/08/13 02:57:48;;;;;;;18.45;14.93;;;;;;;;;;1083257;54;20034;-58
2021/08/13 02:58:55;;;;;;;23.50;15.20;;;;;;;;;;1083305;54;20030;-58
2021/08/13 02:59:56;;;;;;;21.15;15.23;;;;;;;;;;1083237;54;20023;-58
2021/08/13 03:01:00;;;;;;;19.63;15.73;;;;;;;;;;1083661;39;20523;-58
2021/08/13 03:02:04;;;;;;;21.58;16.30;;;;;;;;;;1083265;54;20022;-58
2021/08/13 03:03:08;;;;;;;19.63;15.38;;;;;;;;;;1083244;54;20031;-58
2021/08/13 03:04:10;;;;;;;21.77;15.43;;;;;;;;;;1083214;54;20027;-58
2021/08/13 03:05:14;;;;;;;20.00;15.27;;;;;;;;;;1083275;54;20052;-58
2021/08/13 03:06:18;;;;;;;20.38;14.93;;;;;;;;;;1083254;54;20035;-58
2021/08/13 03:07:23;;;;;;;20.75;15.43;;;;;;;;;;1083328;39;20436;-58
2021/08/13 03:08:24;;;;;;;19.77;15.43;;;;;;;;;;1082959;54;20162;-58
2021/08/13 03:09:29;;;;;;;20.75;16.00;;;;;;;;;;1083259;54;20030;-58
2021/08/13 03:10:32;;;;;;;20.73;15.27;;;;;;;;;;1083266;54;20030;-58
2021/08/13 03:11:36;;;;;;;17.65;14.32;;;;;;;;;;1083247;54;20030;-58
2021/08/13 03:12:41;;;;;;;20.52;14.65;;;;;;;;;;1083294;54;20548;-58
2021/08/13 03:13:46;;;;;;;17.80;14.50;;;;;;;;;;1083313;54;20038;-58
2021/08/13 03:14:50;;;;;;;16.33;13.80;;;;;;;;;;1083239;54;20537;-58
2021/08/13 03:15:53;;;;;;;17.80;14.20;;;;;;;;;;1083235;54;20038;-58
2021/08/13 03:16:57;;;;;;;21.77;14.23;;;;;;;;;;1083226;54;20031;-58
2021/08/13 03:18:02;;;;;;;19.23;14.50;;;;;;;;;;1083183;54;20034;-58
2021/08/13 03:19:04;;;;;;;18.60;14.95;;;;;;;;;;1083225;54;20038;-58
2021/08/13 03:20:10;;;;;;;19.73;14.13;;;;;;;;;;1083619;39;20410;-58
2021/08/13 03:21:12;;;;;;;21.25;14.75;;;;;;;;;;1083284;54;20026;-58
2021/08/13 03:22:20;;;;;;;19.23;15.05;;;;;;;;;;1083195;54;20030;-58
2021/08/13 03:23:22;;;;;;;19.02;15.05;;;;;;;;;;1083224;54;20022;-58
2021/08/13 03:24:26;;;;;;;17.42;14.45;;;;;;;;;;1083246;54;20030;-57
2021/08/13 03:25:28;;;;;;;17.98;15.02;;;;;;;;;;1083220;54;20038;-58
2021/08/13 03:26:32;;;;;;;21.13;14.43;;;;;;;;;;1083188;54;20118;-61
2021/08/13 03:27:33;;;;;;;17.25;14.85;;;;;;;;;;1083237;54;20022;-58
2021/08/13 03:28:37;;;;;;;20.17;14.82;;;;;;;;;;1083299;54;20031;-58
2021/08/13 03:29:40;;;;;;;18.17;14.55;;;;;;;;;;1083239;54;20114;-58
2021/08/13 03:30:43;;;;;;;20.98;15.50;;;;;;;;;;1083203;54;20038;-58
2021/08/13 03:31:47;;;;;;;19.10;14.75;;;;;;;;;;1083212;54;20030;-58
2021/08/13 03:32:50;;;;;;;19.58;14.15;;;;;;;;;;1083189;54;20022;-58
2021/08/13 03:33:53;;;;;;;19.83;14.55;;;;;;;;;;1083245;54;20219;-58
2021/08/13 03:34:54;;;;;;;18.73;14.80;;;;;;;;;;1083246;54;20102;-57
2021/08/13 03:36:00;;;;;;;19.00;15.52;;;;;;;;;;1083269;54;20548;-57
2021/08/13 03:37:03;;;;;;;16.83;13.88;;;;;;;;;;1083271;54;20022;-58
2021/08/13 03:38:06;;;;;;;21.02;15.18;;;;;;;;;;1083172;54;20061;-58
2021/08/13 03:39:12;;;;;;;20.05;14.30;;;;;;;;;;1083238;54;20588;-58
2021/08/13 03:40:14;;;;;;;17.38;14.52;;;;;;;;;;1083146;54;20032;-58
2021/08/13 03:41:19;;;;;;;24.10;14.77;;;;;;;;;;1083202;54;20019;-58
2021/08/13 03:42:20;;;;;;;20.10;14.90;;;;;;;;;;1082947;47;20026;-58
2021/08/13 03:43:24;;;;;;;19.70;14.82;;;;;;;;;;1082611;54;20563;-58
2021/08/13 03:44:25;;;;;;;18.95;14.85;;;;;;;;;;1083167;54;20034;-58
2021/08/13 03:45:28;;;;;;;20.58;14.40;;;;;;;;;;1083250;54;20030;-58
2021/08/13 03:46:30;;;;;;;21.50;14.35;;;;;;;;;;1083194;54;20045;-58
2021/08/13 03:47:33;;;;;;;19.15;14.15;;;;;;;;;;1083234;54;20073;-58
2021/08/13 03:48:34;;;;;;;19.55;15.43;;;;;;;;;;1083211;54;20038;-59
2021/08/13 03:49:38;;;;;;;20.10;14.57;;;;;;;;;;1082903;54;20544;-58
2021/08/13 03:50:39;;;;;;;18.48;14.55;;;;;;;;;;1082905;47;20551;-58
2021/08/13 03:51:42;;;;;;;19.02;14.68;;;;;;;;;;1083239;54;20031;-58
2021/08/13 03:52:44;;;;;;;16.85;13.85;;;;;;;;;;1083212;54;20014;-58
2021/08/13 03:53:49;;;;;;;21.17;14.68;;;;;;;;;;1083218;54;20034;-58
2021/08/13 03:54:50;;;;;;;19.42;15.20;;;;;;;;;;1083178;54;20109;-60
2021/08/13 03:55:53;;;;;;;23.27;15.15;;;;;;;;;;1083171;54;20035;-60
2021/08/13 03:56:54;;;;;;;20.45;14.68;;;;;;;;;;1083211;54;20057;-58
2021/08/13 03:57:58;;;;;;;20.73;15.32;;;;;;;;;;1083149;54;20030;-58
2021/08/13 03:58:59;;;;;;;19.15;14.13;;;;;;;;;;1083174;54;20040;-58
2021/08/13 04:00:04;;;;;;;17.70;13.98;;;;;;;;;;1083138;54;20027;-58
2021/08/13 04:01:06;;;;;;;17.80;13.32;;;;;;;;;;1083172;54;20033;-58
2021/08/13 04:02:10;;;;;;;17.90;13.90;;;;;;;;;;1083887;31;20542;-58
2021/08/13 04:03:11;;;;;;;18.98;14.50;;;;;;;;;;1083945;31;20536;-60
2021/08/13 04:04:14;;;;;;;17.08;14.07;;;;;;;;;;1083177;54;20030;-58
2021/08/13 04:05:15;;;;;;;21.45;13.60;;;;;;;;;;1083191;54;20616;-58
2021/08/13 04:06:19;;;;;;;17.88;13.65;;;;;;;;;;1083227;54;20083;-58
2021/08/13 04:07:20;;;;;;;19.73;14.18;;;;;;;;;;1083175;54;20122;-58
2021/08/13 04:08:23;;;;;;;18.27;14.18;;;;;;;;;;1083115;54;20030;-58
2021/08/13 04:09:26;;;;;;;15.98;13.82;;;;;;;;;;1083250;54;20125;-58
2021/08/13 04:10:29;;;;;;;16.67;13.75;;;;;;;;;;1082936;47;20027;-58
2021/08/13 04:11:30;;;;;;;20.83;15.45;;;;;;;;;;1082905;54;20031;-58
2021/08/13 04:12:34;;;;;;;17.55;13.88;;;;;;;;;;1083168;54;20571;-58
2021/08/13 04:13:35;;;;;;;18.40;13.95;;;;;;;;;;1083167;54;20034;-58
2021/08/13 04:14:38;;;;;;;19.77;14.43;;;;;;;;;;1083199;54;20038;-58
2021/08/13 04:15:40;;;;;;;20.83;14.50;;;;;;;;;;1083161;54;20026;-58
2021/08/13 04:16:43;;;;;;;21.02;15.57;;;;;;;;;;1083135;54;20027;-58
2021/08/13 04:17:44;;;;;;;20.92;15.02;;;;;;;;;;1083081;54;20038;-58
2021/08/13 04:18:48;;;;;;;17.80;14.52;;;;;;;;;;1083621;39;20414;-58
2021/08/13 04:19:49;;;;;;;20.15;14.52;;;;;;;;;;1083091;54;20026;-58
2021/08/13 04:20:53;;;;;;;19.50;14.55;;;;;;;;;;1083171;54;20034;-59
2021/08/13 04:21:54;;;;;;;16.35;13.88;;;;;;;;;;1083178;54;20121;-58
2021/08/13 04:22:57;;;;;;;18.55;14.15;;;;;;;;;;1083193;54;20575;-58
2021/08/13 04:23:58;;;;;;;18.88;14.00;;;;;;;;;;1083428;54;20114;-58
2021/08/13 04:25:03;;;;;;;19.38;14.63;;;;;;;;;;1083481;54;20045;-58
2021/08/13 04:26:04;;;;;;;20.27;14.02;;;;;;;;;;1083344;54;20077;-60
2021/08/13 04:27:08;;;;;;;17.85;14.23;;;;;;;;;;1083401;54;20034;-60
2021/08/13 04:28:09;;;;;;;17.10;14.13;;;;;;;;;;1083420;54;20056;-59
2021/08/13 04:29:13;;;;;;;18.10;14.25;;;;;;;;;;1083482;54;20073;-60
2021/08/13 04:30:14;;;;;;;19.92;13.55;;;;;;;;;;1083385;54;20049;-58
2021/08/13 04:31:17;;;;;;;16.90;13.57;;;;;;;;;;1083424;54;20022;-58
2021/08/13 04:32:18;;;;;;;19.25;14.00;;;;;;;;;;1083384;54;20028;-59
2021/08/13 04:33:22;;;;;;;17.48;13.93;;;;;;;;;;1083518;54;20022;-58
2021/08/13 04:34:23;;;;;;;21.08;14.40;;;;;;;;;;1083356;54;20057;-58
2021/08/13 04:35:26;;;;;;;17.90;13.27;;;;;;;;;;1083358;54;20031;-60
2021/08/13 04:36:28;;;;;;;19.13;13.77;;;;;;;;;;1083155;54;20541;-58
2021/08/13 04:37:31;;;;;;;19.17;13.93;;;;;;;;;;1083089;54;20032;-59
2021/08/13 04:38:33;;;;;;;20.38;13.95;;;;;;;;;;1083135;54;20057;-58
2021/08/13 04:39:36;;;;;;;22.38;14.35;;;;;;;;;;1083177;54;20026;-58
2021/08/13 04:40:38;;;;;;;19.58;14.35;;;;;;;;;;1083095;54;20030;-58
2021/08/13 04:41:42;;;;;;;16.15;13.55;;;;;;;;;;1083624;39;20437;-60
2021/08/13 04:42:43;;;;;;;17.63;13.55;;;;;;;;;;1083196;54;20022;-58
2021/08/13 04:43:47;;;;;;;16.70;13.40;;;;;;;;;;1083092;54;20026;-60
2021/08/13 04:44:48;;;;;;;18.42;13.82;;;;;;;;;;1083068;54;20057;-58
2021/08/13 04:45:51;;;;;;;17.67;13.77;;;;;;;;;;1083105;54;20030;-60
2021/08/13 04:46:52;;;;;;;16.15;14.02;;;;;;;;;;1083099;54;20034;-60
2021/08/13 04:47:56;;;;;;;17.25;14.25;;;;;;;;;;1083083;54;20031;-60
2021/08/13 04:48:57;;;;;;;22.92;14.52;;;;;;;;;;1083078;54;20030;-60
2021/08/13 04:50:01;;;;;;;18.52;14.43;;;;;;;;;;1083092;54;20030;-60
2021/08/13 04:51:04;;;;;;;15.85;13.43;;;;;;;;;;1083088;54;20572;-60
2021/08/13 04:52:06;;;;;;;16.83;14.43;;;;;;;;;;1083079;54;20030;-59
2021/08/13 04:53:10;;;;;;;17.85;13.50;;;;;;;;;;1083138;54;20030;-59
2021/08/13 04:54:14;;;;;;;17.05;13.38;;;;;;;;;;1083047;54;20026;-59
2021/08/13 04:55:18;;;;;;;17.85;13.20;;;;;;;;;;1083481;54;20026;-59
2021/08/13 04:56:23;;;;;;;16.58;13.70;;;;;;;;;;1083458;54;20034;-59
2021/08/13 04:57:23;;;;;;;19.23;14.00;;;;;;;;;;1083420;54;20030;-59
2021/08/13 04:58:27;;;;;;;16.60;12.82;;;;;;;;;;1083389;54;20567;-59
2021/08/13 04:59:28;;;;;;;16.20;13.00;;;;;;;;;;1083384;54;20126;-59
2021/08/13 05:00:32;;;;;;;18.35;13.88;;;;;;;;;;1083446;54;20037;-60
2021/08/13 05:01:33;;;;;;;17.55;14.50;;;;;;;;;;1083406;54;20057;-59
2021/08/13 05:02:37;;;;;;;16.83;14.80;;;;;;;;;;1083399;54;20559;-59
2021/08/13 05:03:38;;;;;;;19.50;13.93;;;;;;;;;;1083433;54;20022;-59
2021/08/13 05:04:42;;;;;;;18.20;14.25;;;;;;;;;;1083451;54;20035;-59
2021/08/13 05:05:43;;;;;;;16.67;13.35;;;;;;;;;;1083449;54;20057;-60
2021/08/13 05:06:47;;;;;;;17.63;13.52;;;;;;;;;;1083387;54;20026;-60
2021/08/13 05:07:48;;;;;;;20.98;14.35;;;;;;;;;;1083385;54;20652;-60
2021/08/13 05:08:51;;;;;;;17.75;13.68;;;;;;;;;;1083443;54;20027;-60
2021/08/13 05:09:52;;;;;;;20.02;13.82;;;;;;;;;;1083130;54;20564;-60
2021/08/13 05:10:56;;;;;;;19.17;13.48;;;;;;;;;;1083198;54;20102;-60
2021/08/13 05:11:58;;;;;;;17.20;14.80;;;;;;;;;;1083677;54;20033;-62
2021/08/13 05:13:02;;;;;;;18.23;13.15;;;;;;;;;;1083386;54;20033;-63
2021/08/13 05:14:03;;;;;;;17.70;14.07;;;;;;;;;;1083417;54;20034;-63
2021/08/13 05:15:08;;;;;;;20.08;13.57;;;;;;;;;;1083390;54;20037;-62
2021/08/13 05:16:09;;;;;;;18.95;13.98;;;;;;;;;;1083378;54;20062;-63
2021/08/13 05:17:13;;;;;;;18.48;13.52;;;;;;;;;;1083422;54;20066;-63
2021/08/13 05:18:17;;;;;;;18.88;13.93;;;;;;;;;;1083358;54;20015;-63
2021/08/13 05:19:18;;;;;;;19.67;13.35;;;;;;;;;;1083505;39;20428;-63
2021/08/13 05:20:24;;;;;;;20.17;13.93;;;;;;;;;;1083052;54;20031;-62
2021/08/13 05:21:28;;;;;;;17.13;14.23;;;;;;;;;;1083225;54;20015;-63
2021/08/13 05:22:32;;;;;;;16.95;13.80;;;;;;;;;;1083348;54;20042;-63
2021/08/13 05:23:35;;;;;;;18.95;14.38;;;;;;;;;;1083383;54;20018;-62
2021/08/13 05:24:37;;;;;;;18.23;14.70;;;;;;;;;;1083329;54;20054;-63
2021/08/13 05:25:40;;;;;;;17.90;14.65;;;;;;;;;;1083398;54;20026;-63
2021/08/13 05:26:41;;;;;;;18.70;13.95;;;;;;;;;;1083833;39;20420;-63
2021/08/13 05:27:47;;;;;;;20.10;14.82;;;;;;;;;;1083343;54;20022;-63
2021/08/13 05:28:48;;;;;;;18.85;15.02;;;;;;;;;;1083386;54;20532;-62
2021/08/13 05:29:51;;;;;;;16.50;13.95;;;;;;;;;;1083369;54;20067;-62
2021/08/13 05:30:52;;;;;;;17.83;14.40;;;;;;;;;;1083361;54;20030;-63
2021/08/13 05:31:56;;;;;;;19.63;13.90;;;;;;;;;;1083393;54;20069;-63
2021/08/13 05:32:57;;;;;;;18.65;14.73;;;;;;;;;;1083821;39;20408;-63
2021/08/13 05:34:00;;;;;;;16.35;13.93;;;;;;;;;;1083369;54;20030;-63
2021/08/13 05:35:01;;;;;;;18.30;14.75;;;;;;;;;;1083364;54;20117;-62
2021/08/13 05:36:06;;;;;;;15.82;13.85;;;;;;;;;;1083058;54;20023;-62
2021/08/13 05:37:07;;;;;;;19.90;13.80;;;;;;;;;;1083136;54;20018;-63
2021/08/13 05:38:11;;;;;;;20.27;14.27;;;;;;;;;;1083353;54;20077;-62
2021/08/13 05:39:12;;;;;;;17.17;13.43;;;;;;;;;;1083367;54;20076;-62
2021/08/13 05:40:16;;;;;;;19.75;14.25;;;;;;;;;;1083362;54;20033;-62
2021/08/13 05:41:19;;;;;;;17.08;13.98;;;;;;;;;;1083359;54;20019;-62
2021/08/13 05:42:20;;;;;;;17.73;14.07;;;;;;;;;;1083793;31;20520;-63
2021/08/13 05:43:25;;;;;;;17.52;13.10;;;;;;;;;;1083148;54;20030;-63
2021/08/13 05:44:26;;;;;;;18.67;14.95;;;;;;;;;;1083334;54;20026;-62
2021/08/13 05:45:30;;;;;;;19.67;14.00;;;;;;;;;;1083415;54;20037;-62
2021/08/13 05:46:31;;;;;;;19.40;14.02;;;;;;;;;;1083355;54;20025;-62
2021/08/13 05:47:38;;;;;;;20.85;14.00;;;;;;;;;;1083288;54;20070;-62
2021/08/13 05:48:42;;;;;;;19.23;14.60;;;;;;;;;;1083353;54;20029;-62
2021/08/13 05:49:42;;;;;;;18.73;14.70;;;;;;;;;;1083414;54;20038;-63
2021/08/13 05:50:46;;;;;;;19.73;15.50;;;;;;;;;;1083321;54;20034;-62
2021/08/13 05:51:47;;;;;;;21.33;15.02;;;;;;;;;;1083785;39;20406;-62
2021/08/13 05:52:51;;;;;;;22.60;14.57;;;;;;;;;;1083367;54;20033;-62
2021/08/13 05:53:52;;;;;;;17.92;14.23;;;;;;;;;;1083307;54;20057;-62
2021/08/13 05:54:55;;;;;;;19.40;14.32;;;;;;;;;;1083331;54;20045;-63
2021/08/13 05:55:56;;;;;;;19.13;14.50;;;;;;;;;;1083775;39;20416;-62
2021/08/13 05:57:00;;;;;;;17.60;14.43;;;;;;;;;;1083354;54;20030;-63
2021/08/13 05:58:01;;;;;;;22.65;15.27;;;;;;;;;;1083304;46;20543;-62
2021/08/13 05:59:06;;;;;;;19.05;14.85;;;;;;;;;;1084117;31;20493;-62
2021/08/13 06:00:08;;;;;;;18.48;13.23;;;;;;;;;;1083758;39;20508;-62
2021/08/13 06:01:12;;;;;;;19.63;14.25;;;;;;;;;;1083299;54;20074;-62
2021/08/13 06:02:16;;;;;;;20.75;13.68;;;;;;;;;;1083309;54;20034;-62
2021/08/13 06:03:20;;;;;;;19.48;13.45;;;;;;;;;;1083780;39;20429;-62
2021/08/13 06:04:21;;;;;;;17.15;13.45;;;;;;;;;;1083313;54;20110;-62
2021/08/13 06:05:24;;;;;;;24.88;13.55;;;;;;;;;;1083319;54;20027;-62
2021/08/13 06:06:27;;;;;;;17.85;13.13;;;;;;;;;;1083034;54;20049;-62
2021/08/13 06:07:30;;;;;;;17.73;12.75;;;;;;;;;;1083290;54;20113;-62
2021/08/13 06:08:34;;;;;;;18.75;13.25;;;;;;;;;;1083304;54;20026;-62
2021/08/13 06:09:35;;;;;;;17.67;13.00;;;;;;;;;;1083293;54;20042;-62